Time;durP1;ratioP1;P1;durP2;ratioP2;P2;SDS_P1;SDS_P2;PMS_P1;PMS_P2;Temp;Humidity;BMP_temperature;BMP_pressure;BME280_temperature;BME280_humidity;BME280_pressure;Samples;Min_cycle;Max_cycle;Signal;HPM_P1;HPM_P2
2024/01/04 00:01:27;;;;;;;0.97;0.97;;;;;231.90;258443.00;;;;5116651;28;20576;-59
2024/01/04 00:03:54;;;;;;;0.60;0.60;;;;;231.90;258443.00;;;;5117547;28;20201;-59
2024/01/04 00:06:22;;;;;;;0.60;0.60;;;;;231.90;258443.00;;;;5115085;28;20204;-59
2024/01/04 00:08:49;;;;;;;0.53;0.53;;;;;231.90;258443.00;;;;5116468;28;20225;-59
2024/01/04 00:11:16;;;;;;;0.77;0.77;;;;;231.90;258443.00;;;;5116288;28;20283;-59
2024/01/04 00:13:44;;;;;;;0.63;0.63;;;;;231.90;258443.00;;;;5116264;28;20209;-59
2024/01/04 00:16:13;;;;;;;0.50;0.50;;;;;231.90;258443.00;;;;5116421;28;20203;-60
2024/01/04 00:18:40;;;;;;;1.20;0.87;;;;;231.90;258443.00;;;;5116086;28;20200;-59
2024/01/04 00:21:10;;;;;;;0.53;0.53;;;;;231.90;258443.00;;;;5116066;28;20216;-60
2024/01/04 00:23:38;;;;;;;0.60;0.60;;;;;231.90;258443.00;;;;5116408;28;20717;-59
2024/01/04 00:26:05;;;;;;;0.50;0.50;;;;;231.90;258443.00;;;;5115986;28;20187;-59
2024/01/04 00:28:33;;;;;;;0.63;0.63;;;;;231.90;258443.00;;;;5115952;28;20219;-59
2024/01/04 00:31:00;;;;;;;0.60;0.60;;;;;231.90;258443.00;;;;5114547;28;20217;-61
2024/01/04 00:33:29;;;;;;;0.60;0.60;;;;;231.90;258443.00;;;;5115809;28;20221;-59
2024/01/04 00:35:56;;;;;;;0.50;0.50;;;;;231.90;258443.00;;;;5115711;28;20198;-59
2024/01/04 00:38:24;;;;;;;0.70;0.70;;;;;231.90;258443.00;;;;5116298;28;20198;-59
2024/01/04 00:40:52;;;;;;;0.50;0.50;;;;;231.90;258443.00;;;;5115522;28;20271;-60
2024/01/04 00:43:20;;;;;;;0.50;0.50;;;;;231.90;258443.00;;;;5115486;28;20251;-59
2024/01/04 00:45:47;;;;;;;0.60;0.60;;;;;231.90;258443.00;;;;5115632;28;20186;-60
2024/01/04 00:48:14;;;;;;;0.60;0.60;;;;;231.90;258443.00;;;;5115829;28;20279;-60
2024/01/04 00:50:43;;;;;;;0.73;0.73;;;;;231.90;258443.00;;;;5115635;28;20201;-60
2024/01/04 00:53:10;;;;;;;0.60;0.60;;;;;231.90;258443.00;;;;5115199;28;20213;-60
2024/01/04 00:55:38;;;;;;;2.57;1.37;;;;;231.90;258443.00;;;;5115699;28;20673;-59
2024/01/04 00:58:05;;;;;;;0.90;0.90;;;;;231.90;258443.00;;;;5115124;28;20548;-59
2024/01/04 01:00:33;;;;;;;1.40;0.80;;;;;231.90;258443.00;;;;5115942;28;20242;-59
2024/01/04 01:03:00;;;;;;;0.50;0.50;;;;;231.90;258443.00;;;;5115473;28;20318;-60
2024/01/04 01:05:28;;;;;;;0.57;0.57;;;;;231.90;258443.00;;;;5115740;28;20200;-59
2024/01/04 01:07:57;;;;;;;0.50;0.50;;;;;231.90;258443.00;;;;5115231;28;20191;-59
2024/01/04 01:10:26;;;;;;;0.60;0.60;;;;;231.90;258443.00;;;;5115746;28;20548;-60
2024/01/04 01:12:53;;;;;;;0.50;0.50;;;;;231.90;258443.00;;;;5096715;28;20213;-59
2024/01/04 01:15:21;;;;;;;0.57;0.57;;;;;231.90;258443.00;;;;5115420;28;20561;-59
2024/01/04 01:17:48;;;;;;;2.17;0.70;;;;;231.90;258443.00;;;;5116097;28;20192;-60
2024/01/04 01:20:15;;;;;;;12.30;1.43;;;;;231.90;258443.00;;;;5117099;28;20681;-59
2024/01/04 01:22:43;;;;;;;0.63;0.63;;;;;231.90;258443.00;;;;5116970;28;20289;-59
2024/01/04 01:25:12;;;;;;;0.70;0.70;;;;;231.90;258443.00;;;;5115057;28;20189;-60
2024/01/04 01:27:39;;;;;;;0.70;0.70;;;;;231.90;258443.00;;;;5113471;28;20542;-59
2024/01/04 01:30:07;;;;;;;1.20;1.20;;;;;231.90;258443.00;;;;5114882;28;20217;-59
2024/01/04 01:32:35;;;;;;;0.50;0.50;;;;;231.90;258443.00;;;;5114776;28;20214;-59
2024/01/04 01:35:02;;;;;;;0.60;0.60;;;;;231.90;258443.00;;;;5114489;28;20733;-59
2024/01/04 01:37:29;;;;;;;0.50;0.50;;;;;231.90;258443.00;;;;5114459;28;20190;-59
2024/01/04 01:39:57;;;;;;;0.60;0.60;;;;;231.90;258443.00;;;;5114389;28;20186;-60
2024/01/04 01:42:26;;;;;;;0.60;0.60;;;;;231.90;258443.00;;;;5114972;28;20218;-60
2024/01/04 01:44:53;;;;;;;0.50;0.50;;;;;231.90;258443.00;;;;5114624;28;20595;-59
2024/01/04 01:47:22;;;;;;;0.50;0.50;;;;;231.90;258443.00;;;;5114445;28;20201;-61
2024/01/04 01:49:50;;;;;;;0.60;0.60;;;;;231.90;258443.00;;;;5114529;28;20216;-60
2024/01/04 01:52:17;;;;;;;0.60;0.60;;;;;231.90;258443.00;;;;5114299;28;20213;-60
2024/01/04 01:54:46;;;;;;;0.60;0.60;;;;;231.90;258443.00;;;;5096002;28;20191;-60
2024/01/04 01:57:14;;;;;;;0.80;0.80;;;;;231.90;258443.00;;;;5114722;28;20722;-60
2024/01/04 01:59:44;;;;;;;0.60;0.60;;;;;231.90;258443.00;;;;5114198;28;20675;-60
2024/01/04 02:02:12;;;;;;;0.60;0.60;;;;;231.90;258443.00;;;;5114264;28;20217;-60
2024/01/04 02:04:40;;;;;;;0.60;0.60;;;;;231.90;258443.00;;;;5114685;28;20187;-60
2024/01/04 02:07:08;;;;;;;0.70;0.70;;;;;231.90;258443.00;;;;5114129;28;20554;-60
2024/01/04 02:09:36;;;;;;;0.50;0.50;;;;;231.90;258443.00;;;;5113990;28;20198;-60
2024/01/04 02:12:05;;;;;;;0.50;0.50;;;;;231.90;258443.00;;;;5113790;28;20289;-60
2024/01/04 02:14:33;;;;;;;0.90;0.90;;;;;231.90;258443.00;;;;5113990;28;20666;-60
2024/01/04 02:17:02;;;;;;;0.60;0.60;;;;;231.90;258443.00;;;;5114044;28;20194;-60
2024/01/04 02:19:31;;;;;;;0.50;0.50;;;;;231.90;258443.00;;;;5114723;28;20198;-59
2024/01/04 02:21:58;;;;;;;0.60;0.60;;;;;231.90;258443.00;;;;5113860;28;20293;-59
2024/01/04 02:24:27;;;;;;;0.50;0.50;;;;;231.90;258443.00;;;;5095787;28;20205;-59
2024/01/04 02:26:55;;;;;;;0.60;0.60;;;;;231.90;258443.00;;;;5113790;28;20197;-60
2024/01/04 02:29:22;;;;;;;0.50;0.50;;;;;231.90;258443.00;;;;5113758;28;20190;-60
2024/01/04 02:31:50;;;;;;;0.60;0.60;;;;;231.90;258443.00;;;;5113779;28;20685;-60
2024/01/04 02:34:17;;;;;;;0.60;0.60;;;;;231.90;258443.00;;;;5113915;28;20210;-59
2024/01/04 02:36:45;;;;;;;0.60;0.60;;;;;231.90;258443.00;;;;5113660;28;20191;-59
2024/01/04 02:39:12;;;;;;;0.60;0.60;;;;;231.90;258443.00;;;;5112507;28;20229;-58
2024/01/04 02:41:41;;;;;;;0.60;0.60;;;;;231.90;258443.00;;;;5113700;28;20219;-58
2024/01/04 02:44:09;;;;;;;0.60;0.60;;;;;231.90;258443.00;;;;5112500;28;20216;-59
2024/01/04 02:46:36;;;;;;;0.60;0.60;;;;;231.90;258443.00;;;;5113885;28;20190;-59
2024/01/04 02:49:03;;;;;;;0.60;0.60;;;;;231.90;258443.00;;;;5113996;28;20191;-60
2024/01/04 02:51:31;;;;;;;0.60;0.60;;;;;231.90;258443.00;;;;5113550;28;20228;-60
2024/01/04 02:53:58;;;;;;;0.50;0.50;;;;;231.90;258443.00;;;;5113439;28;20198;-60
2024/01/04 02:56:26;;;;;;;0.70;0.70;;;;;231.90;258443.00;;;;5113713;28;20200;-60
2024/01/04 02:58:54;;;;;;;0.60;0.60;;;;;231.90;258443.00;;;;5113625;28;20197;-58
2024/01/04 03:01:22;;;;;;;0.60;0.60;;;;;231.90;258443.00;;;;5113498;28;20245;-58
2024/01/04 03:03:51;;;;;;;0.60;0.60;;;;;231.90;258443.00;;;;5113361;28;20190;-59
2024/01/04 03:06:23;;;;;;;0.60;0.60;;;;;231.90;258443.00;;;;5113869;28;20239;-59
2024/01/04 03:08:51;;;;;;;0.60;0.60;;;;;231.90;258443.00;;;;5114131;28;20198;-60
2024/01/04 03:11:20;;;;;;;0.50;0.50;;;;;231.90;258443.00;;;;5113231;28;20186;-59
2024/01/04 03:13:47;;;;;;;0.60;0.60;;;;;231.90;258443.00;;;;5113605;28;20197;-59
2024/01/04 03:16:18;;;;;;;0.60;0.60;;;;;231.90;258443.00;;;;5113600;28;20220;-59
2024/01/04 03:18:46;;;;;;;1.23;1.17;;;;;231.90;258443.00;;;;5113831;28;20179;-59
2024/01/04 03:21:13;;;;;;;0.60;0.60;;;;;231.90;258443.00;;;;5115687;28;20213;-59
2024/01/04 03:23:41;;;;;;;0.60;0.60;;;;;231.90;258443.00;;;;5117223;28;20213;-60
2024/01/04 03:26:08;;;;;;;0.70;0.70;;;;;231.90;258443.00;;;;5117458;28;20190;-60
2024/01/04 03:28:36;;;;;;;0.67;0.67;;;;;231.90;258443.00;;;;5117579;28;20259;-59
2024/01/04 03:31:03;;;;;;;0.70;0.70;;;;;231.90;258443.00;;;;5117546;28;20190;-59
2024/01/04 03:33:32;;;;;;;0.60;0.60;;;;;231.90;258443.00;;;;5117117;28;20236;-59
2024/01/04 03:35:59;;;;;;;2.10;0.70;;;;;231.90;258443.00;;;;5116968;28;20194;-59
2024/01/04 03:38:28;;;;;;;0.70;0.70;;;;;231.90;258443.00;;;;5117506;28;20190;-59
2024/01/04 03:40:55;;;;;;;0.50;0.50;;;;;231.90;258443.00;;;;5117105;28;20224;-58
2024/01/04 03:43:23;;;;;;;0.60;0.60;;;;;231.90;258443.00;;;;5117339;28;20688;-58
2024/01/04 03:45:50;;;;;;;0.60;0.60;;;;;231.90;258443.00;;;;5117795;28;20190;-58
2024/01/04 03:48:17;;;;;;;0.70;0.70;;;;;231.90;258443.00;;;;5117234;28;20190;-58
2024/01/04 03:50:46;;;;;;;0.60;0.60;;;;;231.90;258443.00;;;;5116830;28;20207;-59
2024/01/04 03:53:13;;;;;;;1.30;1.20;;;;;231.90;258443.00;;;;5098290;28;20225;-59
2024/01/04 03:55:41;;;;;;;1.20;1.10;;;;;231.90;258443.00;;;;5117116;28;20285;-59
2024/01/04 03:58:08;;;;;;;0.60;0.60;;;;;231.90;258443.00;;;;5116530;28;20595;-60
2024/01/04 04:00:35;;;;;;;0.60;0.60;;;;;231.90;258443.00;;;;5116533;28;20552;-60
2024/01/04 04:03:03;;;;;;;0.60;0.60;;;;;231.90;258443.00;;;;5116387;28;20208;-59
2024/01/04 04:05:30;;;;;;;0.60;0.60;;;;;231.90;258443.00;;;;5116806;28;20194;-59
2024/01/04 04:07:59;;;;;;;1.43;0.90;;;;;231.90;258443.00;;;;5116815;28;20203;-59
2024/01/04 04:10:26;;;;;;;1.20;0.83;;;;;231.90;258443.00;;;;5117008;28;20193;-59
2024/01/04 04:12:54;;;;;;;0.60;0.60;;;;;231.90;258443.00;;;;5116252;28;20205;-59
2024/01/04 04:15:21;;;;;;;1.60;0.70;;;;;231.90;258443.00;;;;5118215;28;20189;-59
2024/01/04 04:17:48;;;;;;;0.77;0.77;;;;;231.90;258443.00;;;;5117732;28;20186;-59
2024/01/04 04:20:16;;;;;;;3.80;0.83;;;;;231.90;258443.00;;;;5116759;28;20554;-60
2024/01/04 04:22:43;;;;;;;0.60;0.60;;;;;231.90;258443.00;;;;5116155;28;20218;-59
2024/01/04 04:25:12;;;;;;;0.93;0.83;;;;;231.90;258443.00;;;;5116009;28;20278;-59
2024/01/04 04:27:40;;;;;;;1.00;1.00;;;;;231.90;258443.00;;;;5116368;28;20565;-59
2024/01/04 04:30:08;;;;;;;0.50;0.50;;;;;231.90;258443.00;;;;5114553;28;20197;-60
2024/01/04 04:32:36;;;;;;;0.50;0.50;;;;;231.90;258443.00;;;;5114610;28;20201;-60
2024/01/04 04:35:04;;;;;;;0.60;0.60;;;;;231.90;258443.00;;;;5116087;28;20194;-59
2024/01/04 04:37:31;;;;;;;0.50;0.50;;;;;231.90;258443.00;;;;5115680;28;20201;-60
2024/01/04 04:40:00;;;;;;;0.60;0.60;;;;;231.90;258443.00;;;;5115751;28;20197;-60
2024/01/04 04:42:28;;;;;;;0.60;0.60;;;;;231.90;258443.00;;;;5115526;28;20700;-60
2024/01/04 04:44:56;;;;;;;0.60;0.60;;;;;231.90;258443.00;;;;5115663;28;20197;-60
2024/01/04 04:47:23;;;;;;;0.50;0.50;;;;;231.90;258443.00;;;;5115779;28;20185;-58
2024/01/04 04:49:51;;;;;;;0.90;0.90;;;;;231.90;258443.00;;;;5115676;28;20188;-59
2024/01/04 04:52:18;;;;;;;0.70;0.70;;;;;231.90;258443.00;;;;5115556;28;20692;-61
2024/01/04 04:54:45;;;;;;;0.90;0.90;;;;;231.90;258443.00;;;;5115483;28;20557;-60
2024/01/04 04:57:13;;;;;;;0.60;0.60;;;;;231.90;258443.00;;;;5115701;28;20291;-61
2024/01/04 04:59:41;;;;;;;0.80;0.80;;;;;231.90;258443.00;;;;5115291;28;20202;-61
2024/01/04 05:02:10;;;;;;;0.60;0.60;;;;;231.90;258443.00;;;;5115316;28;20214;-61
2024/01/04 05:04:37;;;;;;;0.60;0.60;;;;;231.90;258443.00;;;;5115581;28;20189;-60
2024/01/04 05:07:05;;;;;;;1.07;1.00;;;;;231.90;258443.00;;;;5115323;28;20194;-60
2024/01/04 05:09:32;;;;;;;0.60;0.60;;;;;231.90;258443.00;;;;5115910;28;20194;-60
2024/01/04 05:11:59;;;;;;;0.70;0.70;;;;;231.90;258443.00;;;;5115466;28;20217;-60
2024/01/04 05:14:27;;;;;;;0.50;0.50;;;;;231.90;258443.00;;;;5115338;28;20197;-60
2024/01/04 05:16:55;;;;;;;0.70;0.70;;;;;231.90;258443.00;;;;5115241;28;20278;-59
2024/01/04 05:19:23;;;;;;;0.60;0.60;;;;;231.90;258443.00;;;;5115051;28;20666;-60
2024/01/04 05:21:50;;;;;;;0.60;0.60;;;;;231.90;258443.00;;;;5114952;28;20221;-60
2024/01/04 05:24:17;;;;;;;0.50;0.50;;;;;231.90;258443.00;;;;5115455;28;20188;-60
2024/01/04 05:26:45;;;;;;;0.70;0.70;;;;;231.90;258443.00;;;;5116063;28;20691;-59
2024/01/04 05:29:12;;;;;;;0.83;0.83;;;;;231.90;258443.00;;;;5116046;28;20246;-59
2024/01/04 05:31:40;;;;;;;0.70;0.70;;;;;231.90;258443.00;;;;5115592;28;20552;-59
2024/01/04 05:34:09;;;;;;;0.60;0.60;;;;;231.90;258443.00;;;;5115186;28;20556;-59
2024/01/04 05:36:36;;;;;;;0.60;0.60;;;;;231.90;258443.00;;;;5114846;28;20197;-59
2024/01/04 05:39:04;;;;;;;0.87;0.87;;;;;231.90;258443.00;;;;5114875;28;20721;-59
2024/01/04 05:41:31;;;;;;;0.60;0.60;;;;;231.90;258443.00;;;;5114362;28;20755;-60
2024/01/04 05:43:58;;;;;;;0.50;0.50;;;;;231.90;258443.00;;;;5114082;28;20189;-58
2024/01/04 05:46:26;;;;;;;1.03;0.70;;;;;231.90;258443.00;;;;5114721;28;20218;-58
2024/01/04 05:48:54;;;;;;;0.60;0.60;;;;;231.90;258443.00;;;;5114038;28;20270;-59
2024/01/04 05:51:23;;;;;;;0.60;0.60;;;;;231.90;258443.00;;;;5114483;28;20233;-59
2024/01/04 05:53:50;;;;;;;0.60;0.60;;;;;231.90;258443.00;;;;5114235;28;20652;-58
2024/01/04 05:56:17;;;;;;;5.83;0.90;;;;;231.90;258443.00;;;;5114288;28;20186;-59
2024/01/04 05:58:45;;;;;;;0.60;0.60;;;;;231.90;258443.00;;;;5114201;28;20198;-60
2024/01/04 06:01:13;;;;;;;0.60;0.60;;;;;231.90;258443.00;;;;5114703;28;20193;-61
2024/01/04 06:03:41;;;;;;;1.27;1.23;;;;;231.90;258443.00;;;;5096984;28;20224;-60
2024/01/04 06:06:10;;;;;;;0.50;0.50;;;;;231.90;258443.00;;;;5114073;28;20546;-59
2024/01/04 06:08:38;;;;;;;0.53;0.53;;;;;231.90;258443.00;;;;5114009;28;20198;-59
2024/01/04 06:11:07;;;;;;;0.73;0.73;;;;;231.90;258443.00;;;;5114287;28;20245;-60
2024/01/04 06:13:34;;;;;;;1.30;1.27;;;;;231.90;258443.00;;;;5113977;28;20209;-60
2024/01/04 06:16:07;;;;;;;0.60;0.60;;;;;231.90;258443.00;;;;5113919;28;20217;-60
2024/01/04 06:18:34;;;;;;;0.70;0.70;;;;;231.90;258443.00;;;;5114432;28;20231;-60
2024/01/04 06:21:02;;;;;;;0.60;0.60;;;;;231.90;258443.00;;;;5113907;28;20192;-60
2024/01/04 06:23:29;;;;;;;0.70;0.70;;;;;231.90;258443.00;;;;5113781;28;20225;-59
2024/01/04 06:25:59;;;;;;;0.60;0.60;;;;;231.90;258443.00;;;;5095527;28;20201;-60
2024/01/04 06:28:26;;;;;;;3.10;0.80;;;;;231.90;258443.00;;;;5113987;28;20192;-60
2024/01/04 06:30:54;;;;;;;2.77;1.07;;;;;231.90;258443.00;;;;5114038;28;20212;-60
2024/01/04 06:33:21;;;;;;;0.80;0.80;;;;;231.90;258443.00;;;;5113483;28;20320;-60
2024/01/04 06:35:48;;;;;;;0.53;0.53;;;;;231.90;258443.00;;;;5113899;28;20190;-59
2024/01/04 06:38:16;;;;;;;0.60;0.60;;;;;231.90;258443.00;;;;5114233;28;20267;-59
2024/01/04 06:40:43;;;;;;;0.57;0.57;;;;;231.90;258443.00;;;;5113930;28;20647;-59
2024/01/04 06:43:12;;;;;;;0.73;0.73;;;;;231.90;258443.00;;;;5113388;28;20232;-60
2024/01/04 06:45:40;;;;;;;0.60;0.60;;;;;231.90;258443.00;;;;5112241;28;20194;-60
2024/01/04 06:48:08;;;;;;;0.50;0.50;;;;;231.90;258443.00;;;;5113456;28;20221;-58
2024/01/04 06:50:36;;;;;;;0.60;0.60;;;;;231.90;258443.00;;;;5113700;28;20209;-58
2024/01/04 06:53:03;;;;;;;0.60;0.60;;;;;231.90;258443.00;;;;5113968;28;20764;-59
2024/01/04 06:55:31;;;;;;;0.50;0.50;;;;;231.90;258443.00;;;;5115153;28;20190;-59
2024/01/04 06:57:58;;;;;;;0.70;0.70;;;;;231.90;258443.00;;;;5118037;28;20555;-59
2024/01/04 07:00:27;;;;;;;0.50;0.50;;;;;231.90;258443.00;;;;5117585;28;20200;-60
2024/01/04 07:02:54;;;;;;;3.60;1.07;;;;;231.90;258443.00;;;;5117773;28;20218;-60
2024/01/04 07:05:22;;;;;;;0.60;0.60;;;;;231.90;258443.00;;;;5118637;28;20194;-60
2024/01/04 07:07:50;;;;;;;0.50;0.50;;;;;231.90;258443.00;;;;5119201;28;20200;-60
2024/01/04 07:10:17;;;;;;;0.70;0.70;;;;;231.90;258443.00;;;;5118027;28;20251;-60
2024/01/04 07:13:06;;;;;;;0.50;0.50;;;;;231.90;258443.00;;;;5117706;28;20205;-61
2024/01/04 07:15:35;;;;;;;0.50;0.50;;;;;231.90;258443.00;;;;5117890;28;20646;-59
2024/01/04 07:18:02;;;;;;;0.60;0.60;;;;;231.90;258443.00;;;;5117413;28;20557;-59
2024/01/04 07:20:31;;;;;;;0.70;0.70;;;;;231.90;258443.00;;;;5117582;28;20194;-59
2024/01/04 07:22:58;;;;;;;0.50;0.50;;;;;231.90;258443.00;;;;5099516;28;20218;-63
2024/01/04 07:25:26;;;;;;;0.60;0.60;;;;;231.90;258443.00;;;;5102203;28;20284;-62
2024/01/04 07:27:53;;;;;;;0.70;0.70;;;;;231.90;258443.00;;;;5115696;28;20693;-59
2024/01/04 07:30:21;;;;;;;0.70;0.70;;;;;231.90;258443.00;;;;5109966;28;20194;-59
2024/01/04 07:32:49;;;;;;;0.70;0.70;;;;;231.90;258443.00;;;;5116043;28;20595;-59
2024/01/04 07:35:19;;;;;;;0.60;0.60;;;;;231.90;258443.00;;;;5109719;28;20237;-60
2024/01/04 07:37:46;;;;;;;0.57;0.57;;;;;231.90;258443.00;;;;5100341;28;20199;-59
2024/01/04 07:40:14;;;;;;;0.50;0.50;;;;;231.90;258443.00;;;;5115798;28;20210;-60
2024/01/04 07:42:41;;;;;;;0.60;0.60;;;;;231.90;258443.00;;;;5096729;28;20228;-60
2024/01/04 07:45:09;;;;;;;0.60;0.60;;;;;231.90;258443.00;;;;5087836;28;20194;-60
2024/01/04 07:47:37;;;;;;;0.90;0.63;;;;;231.90;258443.00;;;;5089506;28;20199;-61
2024/01/04 07:50:07;;;;;;;0.70;0.70;;;;;231.90;258443.00;;;;5076173;28;20211;-60
2024/01/04 07:52:35;;;;;;;0.60;0.60;;;;;231.90;258443.00;;;;5094233;28;20285;-60
2024/01/04 07:55:03;;;;;;;0.60;0.60;;;;;231.90;258443.00;;;;5094660;28;20209;-60
2024/01/04 07:57:30;;;;;;;0.50;0.50;;;;;231.90;258443.00;;;;5094184;28;20198;-60
2024/01/04 07:59:57;;;;;;;0.70;0.70;;;;;231.90;258443.00;;;;5094386;28;20209;-60
2024/01/04 08:02:28;;;;;;;0.87;0.87;;;;;231.90;258443.00;;;;5093947;28;20581;-60
2024/01/04 08:04:56;;;;;;;0.80;0.80;;;;;231.90;258443.00;;;;5094815;28;20199;-60
2024/01/04 08:07:25;;;;;;;0.50;0.50;;;;;231.90;258443.00;;;;5093775;28;20269;-60
2024/01/04 08:09:53;;;;;;;0.60;0.60;;;;;231.90;258443.00;;;;5107023;28;20201;-60
2024/01/04 08:12:21;;;;;;;0.50;0.50;;;;;231.90;258443.00;;;;5114553;28;20689;-59
2024/01/04 08:14:49;;;;;;;1.80;1.40;;;;;231.90;258443.00;;;;5114623;28;20533;-59
2024/01/04 08:17:16;;;;;;;0.60;0.60;;;;;231.90;258443.00;;;;5114846;28;20208;-59
2024/01/04 08:19:43;;;;;;;0.60;0.60;;;;;231.90;258443.00;;;;5115428;28;20561;-59
2024/01/04 08:22:11;;;;;;;0.50;0.50;;;;;231.90;258443.00;;;;5095047;28;20310;-59
2024/01/04 08:24:42;;;;;;;0.60;0.60;;;;;231.90;258443.00;;;;5094273;28;20695;-61
2024/01/04 08:27:09;;;;;;;1.27;1.03;;;;;231.90;258443.00;;;;5075802;28;20748;-61
2024/01/04 08:29:37;;;;;;;0.70;0.70;;;;;231.90;258443.00;;;;5093589;28;20205;-61
2024/01/04 08:32:05;;;;;;;0.70;0.70;;;;;231.90;258443.00;;;;5093521;28;20232;-61
2024/01/04 08:34:32;;;;;;;0.50;0.50;;;;;231.90;258443.00;;;;5094463;28;20190;-61
2024/01/04 08:37:00;;;;;;;0.60;0.60;;;;;231.90;258443.00;;;;5090251;28;20209;-60
2024/01/04 08:39:28;;;;;;;0.60;0.60;;;;;231.90;258443.00;;;;5096393;28;20198;-61
2024/01/04 08:41:57;;;;;;;0.77;0.77;;;;;231.90;258443.00;;;;5091520;28;20552;-60
2024/01/04 08:44:24;;;;;;;0.60;0.60;;;;;231.90;258443.00;;;;5097093;28;20240;-60
2024/01/04 08:46:53;;;;;;;0.60;0.60;;;;;231.90;258443.00;;;;5091263;28;20202;-61
2024/01/04 08:49:20;;;;;;;0.50;0.50;;;;;231.90;258443.00;;;;5094941;28;20292;-60
2024/01/04 08:51:48;;;;;;;0.60;0.60;;;;;231.90;258443.00;;;;5092017;28;20235;-61
2024/01/04 08:54:15;;;;;;;0.60;0.60;;;;;231.90;258443.00;;;;5092010;28;20212;-61
2024/01/04 08:56:43;;;;;;;1.70;0.93;;;;;231.90;258443.00;;;;5092151;28;20214;-61
2024/01/04 08:59:11;;;;;;;3.43;1.43;;;;;231.90;258443.00;;;;5097855;28;20650;-61
2024/01/04 09:01:39;;;;;;;0.53;0.53;;;;;231.90;258443.00;;;;5094617;28;20219;-61
2024/01/04 09:04:06;;;;;;;0.90;0.90;;;;;231.90;258443.00;;;;5093380;28;20335;-61
2024/01/04 09:06:34;;;;;;;1.17;1.17;;;;;231.90;258443.00;;;;5093406;28;20199;-61
2024/01/04 09:09:05;;;;;;;1.50;1.33;;;;;231.90;258443.00;;;;5092881;28;20674;-61
2024/01/04 09:11:33;;;;;;;0.60;0.60;;;;;231.90;258443.00;;;;5105991;28;20265;-61
2024/01/04 09:14:05;;;;;;;1.80;1.07;;;;;231.90;258443.00;;;;5113858;28;20194;-61
2024/01/04 09:16:34;;;;;;;0.87;0.87;;;;;231.90;258443.00;;;;5081406;28;20201;-61
2024/01/04 09:19:02;;;;;;;0.70;0.70;;;;;231.90;258443.00;;;;5107238;28;20624;-61
2024/01/04 09:21:30;;;;;;;0.70;0.70;;;;;231.90;258443.00;;;;5113073;28;20667;-61
2024/01/04 09:23:58;;;;;;;0.50;0.50;;;;;231.90;258443.00;;;;5109239;28;20283;-61
2024/01/04 09:26:26;;;;;;;3.20;1.43;;;;;231.90;258443.00;;;;5091591;28;20272;-61
2024/01/04 09:28:53;;;;;;;0.80;0.80;;;;;231.90;258443.00;;;;5092821;28;20203;-61
2024/01/04 09:31:21;;;;;;;0.60;0.60;;;;;231.90;258443.00;;;;5091854;28;20276;-61
2024/01/04 09:33:49;;;;;;;0.60;0.60;;;;;231.90;258443.00;;;;5107601;28;20194;-61
2024/01/04 09:36:17;;;;;;;0.50;0.50;;;;;231.90;258443.00;;;;5112881;28;20736;-61
2024/01/04 09:38:44;;;;;;;0.83;0.83;;;;;231.90;258443.00;;;;5112900;28;20199;-62
2024/01/04 09:41:17;;;;;;;3.50;1.50;;;;;231.90;258443.00;;;;5112819;28;20661;-60
2024/01/04 09:43:45;;;;;;;0.60;0.60;;;;;231.90;258443.00;;;;5092628;28;20206;-60
2024/01/04 09:46:18;;;;;;;0.77;0.77;;;;;231.90;258443.00;;;;5098186;28;20194;-60
2024/01/04 09:48:55;;;;;;;5.60;1.10;;;;;231.90;258443.00;;;;5102460;28;20194;-61
2024/01/04 09:51:23;;;;;;;0.77;0.70;;;;;231.90;258443.00;;;;5097916;28;20197;-61
2024/01/04 09:53:53;;;;;;;3.93;0.97;;;;;231.90;258443.00;;;;5092469;28;20228;-61
2024/01/04 09:56:23;;;;;;;0.60;0.60;;;;;231.90;258443.00;;;;5094900;28;20217;-61
2024/01/04 09:58:50;;;;;;;0.70;0.70;;;;;231.90;258443.00;;;;5093996;28;20259;-61
2024/01/04 10:01:22;;;;;;;1.13;1.13;;;;;231.90;258443.00;;;;5113118;28;20198;-61
2024/01/04 10:03:49;;;;;;;0.73;0.73;;;;;231.90;258443.00;;;;5105235;28;20260;-61
2024/01/04 10:06:25;;;;;;;0.60;0.60;;;;;231.90;258443.00;;;;5111685;28;20254;-61
2024/01/04 10:08:57;;;;;;;0.90;0.90;;;;;231.90;258443.00;;;;5093052;28;20191;-61
2024/01/04 10:11:32;;;;;;;0.43;0.43;;;;;231.90;258443.00;;;;5107900;28;20195;-60
2024/01/04 10:14:00;;;;;;;0.60;0.60;;;;;231.90;258443.00;;;;5093940;28;20208;-61
2024/01/04 10:16:27;;;;;;;0.50;0.50;;;;;231.90;258443.00;;;;5112353;28;20207;-61
2024/01/04 10:18:57;;;;;;;0.60;0.60;;;;;231.90;258443.00;;;;5112229;28;20257;-61
2024/01/04 10:21:33;;;;;;;0.63;0.63;;;;;231.90;258443.00;;;;5112524;28;20198;-61
2024/01/04 10:24:01;;;;;;;1.20;1.10;;;;;231.90;258443.00;;;;5094115;28;20219;-61
2024/01/04 10:26:28;;;;;;;0.90;0.90;;;;;231.90;258443.00;;;;5111786;28;20200;-61
2024/01/04 10:28:59;;;;;;;0.60;0.60;;;;;231.90;258443.00;;;;5112278;28;20227;-60
2024/01/04 10:31:26;;;;;;;0.50;0.50;;;;;231.90;258443.00;;;;5111252;28;20284;-60
2024/01/04 10:33:58;;;;;;;0.93;0.93;;;;;231.90;258443.00;;;;5111812;28;20195;-62
2024/01/04 10:36:29;;;;;;;0.40;0.40;;;;;231.90;258443.00;;;;5111695;28;20196;-61
2024/01/04 10:39:07;;;;;;;8.60;1.47;;;;;231.90;258443.00;;;;5090811;28;20328;-61
2024/01/04 10:41:35;;;;;;;0.97;0.97;;;;;231.90;258443.00;;;;5108446;28;20201;-61
2024/01/04 10:44:06;;;;;;;0.80;0.80;;;;;231.90;258443.00;;;;5111486;28;20252;-61
2024/01/04 10:46:35;;;;;;;0.60;0.60;;;;;231.90;258443.00;;;;5112072;28;20190;-61
2024/01/04 10:49:03;;;;;;;0.60;0.60;;;;;231.90;258443.00;;;;5111755;28;20276;-61
2024/01/04 10:51:33;;;;;;;0.83;0.83;;;;;231.90;258443.00;;;;5109798;28;20201;-61
2024/01/04 10:54:01;;;;;;;0.50;0.50;;;;;231.90;258443.00;;;;5103555;28;20190;-61
2024/01/04 10:56:31;;;;;;;1.40;0.90;;;;;231.90;258443.00;;;;5104852;28;20199;-61
2024/01/04 10:59:00;;;;;;;0.60;0.60;;;;;231.90;258443.00;;;;5099605;28;20202;-61
2024/01/04 11:01:29;;;;;;;0.60;0.60;;;;;231.90;258443.00;;;;5093235;28;20558;-61
2024/01/04 11:03:56;;;;;;;0.70;0.70;;;;;231.90;258443.00;;;;5093435;28;20632;-61
2024/01/04 11:06:26;;;;;;;0.50;0.50;;;;;231.90;258443.00;;;;5093238;28;20251;-61
2024/01/04 11:08:56;;;;;;;0.93;0.93;;;;;231.90;258443.00;;;;5090480;28;20195;-61
2024/01/04 11:11:26;;;;;;;0.60;0.60;;;;;231.90;258443.00;;;;5091670;28;20244;-61
2024/01/04 11:13:53;;;;;;;0.60;0.60;;;;;231.90;258443.00;;;;5100800;28;20213;-60
2024/01/04 11:16:32;;;;;;;0.50;0.50;;;;;231.90;258443.00;;;;5071704;28;20653;-60
2024/01/04 11:19:10;;;;;;;1.43;1.33;;;;;231.90;258443.00;;;;5107696;28;20548;-60
2024/01/04 11:21:59;;;;;;;0.60;0.60;;;;;231.90;258443.00;;;;5091715;28;20193;-60
2024/01/04 11:24:41;;;;;;;0.50;0.50;;;;;231.90;258443.00;;;;5106702;28;20271;-60
2024/01/04 11:27:13;;;;;;;0.70;0.70;;;;;231.90;258443.00;;;;5111429;28;20212;-60
2024/01/04 11:29:42;;;;;;;0.80;0.80;;;;;231.90;258443.00;;;;5111770;28;20214;-60
2024/01/04 11:32:11;;;;;;;0.50;0.50;;;;;231.90;258443.00;;;;5111897;28;20226;-60
2024/01/04 11:34:41;;;;;;;0.60;0.60;;;;;231.90;258443.00;;;;5079801;28;20205;-59
2024/01/04 11:37:10;;;;;;;0.50;0.50;;;;;231.90;258443.00;;;;5091306;28;20198;-60
2024/01/04 11:42:35;;;;;;;13.57;1.00;;;;;10.60;95045.00;;;;5079303;28;20631;-60
2024/01/04 11:45:05;;;;;;;2.10;0.70;;;;;12.20;95078.00;;;;5068174;28;20261;-61
2024/01/04 11:47:38;;;;;;;1.80;0.80;;;;;12.10;95102.00;;;;5068927;28;20204;-61
2024/01/04 11:50:15;;;;;;;0.60;0.60;;;;;10.90;95122.00;;;;5066891;28;20733;-61
2024/01/04 11:52:42;;;;;;;0.60;0.60;;;;;11.00;95106.00;;;;5068501;28;20280;-61
2024/01/04 11:55:12;;;;;;;1.53;0.73;;;;;9.50;95098.00;;;;5068636;28;20294;-61
2024/01/04 11:57:42;;;;;;;0.83;0.83;;;;;8.30;95100.00;;;;5068838;28;20234;-61
2024/01/04 12:00:16;;;;;;;0.70;0.70;;;;;7.80;95099.00;;;;5068199;28;20190;-61
2024/01/04 12:02:43;;;;;;;0.60;0.60;;;;;7.80;95107.00;;;;5068721;28;20212;-60
2024/01/04 12:05:11;;;;;;;1.53;1.37;;;;;7.50;95098.00;;;;5066010;28;20229;-61
2024/01/04 12:07:39;;;;;;;0.50;0.50;;;;;7.10;95108.00;;;;5067193;28;20199;-61
2024/01/04 12:10:09;;;;;;;0.53;0.53;;;;;8.60;95021.00;;;;5064780;28;20203;-60